Vernal, UT (84078)

4:08 PM MDT on May 26, 2017 (GMT -0600)
Maeser | | Change Station

Elev 5469 ft 40.46 °N, 109.57 °W | Updated 11 seconds ago

Overcast
Overcast
72.0 °F
Feels Like 76 °F
N
9.0
Wind Variable Wind from SW
Gusts 24.0 mph

Today
High -- | Low -- °F
--% Chance of Precip.
Yesterday
High -- | Low -- °F
Precip. -- in
Pressure 29.61 in
Visibility 6.0 miles
Clouds Few 4100 ft
Scattered Clouds 5000 ft
Mostly Cloudy 10000 ft
Heat Index 76 °F
Dew Point 34 °F
Humidity 25%
Rainfall 0.00 in
Snow Depth Not available.
5:52 AM 8:37 PM
New Moon, 2% visible
METAR KVEL 262153Z AUTO 25011G43KT 6SM -RA FEW041 SCT050 BKN100 20/00 A2975 RMK AO2 PK WND 27048/2143 RAB42 TSE2057 SLP026 P0000 T02000000
Pressure 29.61 in
Visibility 6.0 miles
Clouds Few 4100 ft
Scattered Clouds 5000 ft
Mostly Cloudy 10000 ft
Heat Index 76 °F
Dew Point 34 °F
Humidity 25%
Rainfall 0.00 in
Snow Depth Not available.
5:52 AM 8:37 PM
New Moon, 2% visible
METAR KVEL 262153Z AUTO 25011G43KT 6SM -RA FEW041 SCT050 BKN100 20/00 A2975 RMK AO2 PK WND 27048/2143 RAB42 TSE2057 SLP026 P0000 T02000000

Get Severe Weather Alerts

Thanks for signing up!

Be on the lookout for a verification email in your inbox.

You'll start receiving the daily forecast at 6 AM.

×

10-Day Weather Forecast

Almanac

Astronomy

May. 26, 2017 Rise Set
Actual Time
Civil Twilight
Nautical Twilight
Astronomical Twilight
Moon
Length of Visible Light
Length of Day
Tomorrow will be .
, % of the Moon is Illuminated

Today's Extremes

State Highs State Lows

Community

WunderPhotos

Category 6

Welcome to Category 6. This is the collective home for Weather Underground's featured writeups by Dr. Jeff Masters (right), Bob Henson (left), Chris Burt, and other regular contributors.

Nearby

Air Quality

  Air Quality AQ Index Pollutant
Not available.

Snow Depth

Station Depth Elevation

Earthquake Activity

City Distance Mag. Time & Date
Minimum magnitude displayed is 2.5.

Coastal Water Temperatures

Place Temperature

Stations

Nearby Weather Stations

Station Location Temp. Windchill Dew Point Humidity Wind Precip. Elev Updated Type
                   

Watches & Warnings

There are currently no watches in effect.